createdAt,value
2022-08-07T00:01:44.609Z,10.05
2022-08-07T00:04:09.637Z,10.25
2022-08-07T00:06:41.134Z,10.30
2022-08-07T00:09:22.171Z,10.10
2022-08-07T00:11:56.012Z,11.52
2022-08-07T00:14:30.550Z,10.55
2022-08-07T00:17:01.976Z,11.23
2022-08-07T00:19:59.540Z,10.38
2022-08-07T00:22:24.569Z,11.73
2022-08-07T00:25:04.878Z,11.23
2022-08-07T00:27:51.845Z,10.82
2022-08-07T00:30:21.920Z,11.55
2022-08-07T00:32:54.755Z,11.07
2022-08-07T00:35:23.153Z,10.55
2022-08-07T00:37:50.407Z,11.00
2022-08-07T00:40:36.521Z,11.57
2022-08-07T00:43:04.325Z,11.63
2022-08-07T00:45:36.719Z,12.13
2022-08-07T00:48:09.083Z,11.63
2022-08-07T00:50:46.161Z,11.77
2022-08-07T00:53:20.106Z,11.82
2022-08-07T00:56:02.383Z,11.88
2022-08-07T00:58:31.429Z,11.95
2022-08-07T01:00:58.412Z,12.38
2022-08-07T01:03:54.858Z,12.45
2022-08-07T01:06:12.325Z,12.10
2022-08-07T01:08:43.320Z,11.73
2022-08-07T01:12:04.425Z,12.43
2022-08-07T01:14:07.872Z,12.00
2022-08-07T01:16:36.655Z,11.43
2022-08-07T01:19:04.732Z,12.07
2022-08-07T01:21:41.400Z,11.38
2022-08-07T01:24:09.242Z,12.07
2022-08-07T01:26:36.820Z,11.38
2022-08-07T01:29:04.587Z,12.00
2022-08-07T01:31:42.465Z,12.23
2022-08-07T01:34:14.729Z,11.40
2022-08-07T01:36:41.928Z,11.80
2022-08-07T01:39:11.016Z,11.95
2022-08-07T01:42:01.711Z,12.80
2022-08-07T01:44:26.139Z,13.20
2022-08-07T01:46:53.275Z,12.88
2022-08-07T01:49:21.418Z,12.07
2022-08-07T01:52:01.694Z,12.77
2022-08-07T01:54:37.108Z,11.25
2022-08-07T01:57:08.413Z,12.32
2022-08-07T01:59:53.940Z,12.10
2022-08-07T02:03:11.334Z,11.48
2022-08-07T02:05:43.205Z,13.20
2022-08-07T02:08:10.899Z,11.13
2022-08-07T02:10:42.887Z,10.60
2022-08-07T02:13:10.851Z,10.48
2022-08-07T02:15:39.721Z,10.07
2022-08-07T02:18:10.015Z,10.60
2022-08-07T02:20:40.215Z,9.98
2022-08-07T02:23:11.195Z,9.10
2022-08-07T02:26:30.830Z,9.27
2022-08-07T02:28:29.557Z,8.10
2022-08-07T02:30:57.740Z,7.82
2022-08-07T02:33:32.724Z,7.03
2022-08-07T02:36:29.206Z,7.43
2022-08-07T02:39:01.555Z,6.93
2022-08-07T02:41:33.586Z,6.57
2022-08-07T02:44:05.153Z,6.30
2022-08-07T02:46:36.816Z,5.38
2022-08-07T02:49:05.591Z,5.65
2022-08-07T02:51:42.576Z,4.95
2022-08-07T02:54:20.628Z,5.28
2022-08-07T02:56:53.747Z,4.32
2022-08-07T02:59:27.725Z,4.10
2022-08-07T03:01:55.518Z,4.72
2022-08-07T03:04:23.603Z,3.97
2022-08-07T03:06:52.514Z,4.07
2022-08-07T03:09:43.443Z,3.60
2022-08-07T03:12:21.662Z,3.72
2022-08-07T03:14:52.294Z,3.60
2022-08-07T03:17:19.902Z,3.85
2022-08-07T03:19:54.840Z,3.78
2022-08-07T03:22:24.260Z,3.88
2022-08-07T03:24:57.304Z,3.53
2022-08-07T03:27:30.286Z,3.70
2022-08-07T03:30:10.841Z,3.60
2022-08-07T03:32:56.974Z,3.42
2022-08-07T03:35:27.577Z,3.42
2022-08-07T03:38:13.375Z,3.30
2022-08-07T03:40:40.302Z,3.10
2022-08-07T03:43:14.617Z,3.40
2022-08-07T03:45:43.688Z,4.03
2022-08-07T03:48:14.831Z,3.47
2022-08-07T03:50:43.187Z,3.30
2022-08-07T03:53:50.006Z,3.72
2022-08-07T03:56:10.600Z,3.80
2022-08-07T03:59:08.891Z,3.60
2022-08-07T04:01:30.197Z,3.58
2022-08-07T04:03:59.169Z,3.83
2022-08-07T04:06:36.182Z,4.00
2022-08-07T04:09:05.682Z,3.80
2022-08-07T04:12:27.984Z,4.30
2022-08-07T04:14:37.721Z,4.07
2022-08-07T04:17:19.770Z,4.07
2022-08-07T04:19:51.903Z,4.55
2022-08-07T04:22:23.575Z,3.95
2022-08-07T04:24:55.869Z,4.07
2022-08-07T04:27:25.634Z,4.10
2022-08-07T04:30:01.629Z,3.65
2022-08-07T04:32:34.733Z,3.90
2022-08-07T04:37:52.825Z,3.70
2022-08-07T04:40:20.510Z,4.45
2022-08-07T04:42:46.996Z,4.18
2022-08-07T04:45:52.141Z,3.90
2022-08-07T04:48:13.004Z,3.97
2022-08-07T04:50:52.161Z,4.00
2022-08-07T04:53:27.845Z,4.13
2022-08-07T04:58:12.230Z,4.35
2022-08-07T05:00:09.632Z,4.90
2022-08-07T05:05:11.548Z,4.53
2022-08-07T05:08:16.250Z,7.00
2022-08-07T05:10:50.844Z,4.88
2022-08-07T05:14:52.818Z,5.13
2022-08-07T05:16:29.397Z,5.10
2022-08-07T05:19:07.537Z,4.88
2022-08-07T05:21:58.976Z,4.15
2022-08-07T05:24:24.732Z,5.50
2022-08-07T05:26:59.668Z,5.50
2022-08-07T05:29:27.829Z,5.20
2022-08-07T05:32:15.520Z,5.22
2022-08-07T05:34:42.874Z,5.28
2022-08-07T05:37:10.641Z,5.22
2022-08-07T05:40:14.084Z,5.15
2022-08-07T05:42:34.291Z,5.05
2022-08-07T05:45:14.436Z,4.88
2022-08-07T05:48:01.571Z,4.82
2022-08-07T05:50:31.020Z,5.60
2022-08-07T05:52:58.021Z,5.25
2022-08-07T05:55:25.600Z,5.55
2022-08-07T05:58:12.991Z,5.32
2022-08-07T06:00:41.123Z,5.38
2022-08-07T06:03:15.568Z,4.90
2022-08-07T06:05:49.104Z,4.88
2022-08-07T06:08:30.971Z,5.17
2022-08-07T06:10:59.509Z,4.70
2022-08-07T06:14:10.795Z,5.03
2022-08-07T06:16:18.835Z,4.70
2022-08-07T06:18:51.814Z,5.13
2022-08-07T06:22:16.647Z,5.15
2022-08-07T06:24:46.034Z,3.85
2022-08-07T06:26:55.807Z,4.68
2022-08-07T06:29:27.887Z,4.50
2022-08-07T06:31:55.920Z,4.80
2022-08-07T06:34:29.805Z,5.03
2022-08-07T06:36:57.057Z,4.78
2022-08-07T06:40:13.051Z,4.80
2022-08-07T06:42:39.899Z,4.15
2022-08-07T06:45:13.323Z,4.95
2022-08-07T06:47:57.396Z,5.47
2022-08-07T06:50:26.956Z,4.85
2022-08-07T06:52:58.045Z,4.60
2022-08-07T06:55:54.021Z,4.80
2022-08-07T06:58:16.671Z,4.70
2022-08-07T07:00:48.310Z,4.25
2022-08-07T07:03:26.512Z,4.80
2022-08-07T07:06:10.972Z,4.10
2022-08-07T07:08:39.761Z,3.97
2022-08-07T07:12:08.494Z,3.80
2022-08-07T07:14:02.262Z,4.28
2022-08-07T07:16:33.345Z,3.80
2022-08-07T07:19:11.441Z,4.15
2022-08-07T07:22:05.431Z,4.15
2022-08-07T07:24:43.234Z,3.80
2022-08-07T07:27:35.845Z,3.92
2022-08-07T07:30:32.783Z,3.47
2022-08-07T07:33:03.745Z,3.47
2022-08-07T07:35:33.750Z,3.53
2022-08-07T07:38:20.595Z,3.30
2022-08-07T07:40:50.296Z,3.22
2022-08-07T07:43:18.730Z,3.30
2022-08-07T07:46:37.884Z,2.90
2022-08-07T07:48:42.532Z,3.10
2022-08-07T07:51:12.859Z,3.50
2022-08-07T07:53:51.683Z,2.97
2022-08-07T07:56:29.792Z,3.13
2022-08-07T07:58:59.627Z,3.15
2022-08-07T08:02:01.610Z,2.80
2022-08-07T08:04:17.294Z,3.15
2022-08-07T08:06:50.681Z,3.20
2022-08-07T08:09:23.203Z,2.70
2022-08-07T08:12:02.413Z,2.50
2022-08-07T08:14:36.492Z,3.08
2022-08-07T08:18:36.432Z,2.60
2022-08-07T08:20:17.030Z,2.88
2022-08-07T08:23:08.219Z,3.00
2022-08-07T08:25:56.637Z,3.20
2022-08-07T08:28:38.627Z,2.75
2022-08-07T08:31:13.844Z,3.00
2022-08-07T08:33:49.579Z,3.50
2022-08-07T08:36:30.022Z,3.20
2022-08-07T08:38:59.986Z,2.95
2022-08-07T08:41:58.762Z,4.60
2022-08-07T08:44:48.582Z,3.00
2022-08-07T08:47:26.892Z,3.10
2022-08-07T08:50:08.800Z,3.08
2022-08-07T08:52:54.078Z,2.90
2022-08-07T08:55:55.379Z,3.63
2022-08-07T08:58:32.869Z,3.40
2022-08-07T09:01:15.334Z,3.53
2022-08-07T09:03:55.314Z,3.08
2022-08-07T09:06:36.708Z,3.35
2022-08-07T09:09:23.604Z,2.92
2022-08-07T09:12:20.083Z,2.92
2022-08-07T09:16:20.082Z,2.90
2022-08-07T09:18:40.371Z,3.33
2022-08-07T09:21:34.470Z,3.28
2022-08-07T09:24:55.985Z,3.00
2022-08-07T09:27:59.700Z,2.53
2022-08-07T09:30:55.091Z,3.17
2022-08-07T09:33:56.817Z,3.25
2022-08-07T09:36:28.565Z,3.97
2022-08-07T09:42:24.945Z,3.05
2022-08-07T09:47:25.642Z,3.60
2022-08-07T09:48:50.248Z,3.40
2022-08-07T09:52:15.777Z,3.08
2022-08-07T09:54:48.237Z,3.28
2022-08-07T09:57:31.708Z,3.22
2022-08-07T10:00:14.998Z,3.10
2022-08-07T10:02:56.605Z,2.88
2022-08-07T10:06:00.895Z,4.25
2022-08-07T10:08:44.406Z,3.03
2022-08-07T10:12:03.094Z,2.90
2022-08-07T10:15:15.366Z,3.10
2022-08-07T10:18:01.179Z,3.20
2022-08-07T10:20:50.808Z,2.78
2022-08-07T10:24:06.372Z,2.78
2022-08-07T10:27:01.043Z,16.52
2022-08-07T10:29:54.997Z,4.10
2022-08-07T10:32:36.788Z,10.30
2022-08-07T10:36:05.525Z,4.43
2022-08-07T10:38:58.189Z,3.35
2022-08-07T10:41:52.393Z,3.35
2022-08-07T10:44:38.309Z,2.65
2022-08-07T10:47:52.524Z,3.30
2022-08-07T10:50:34.630Z,2.75
2022-08-07T10:53:27.656Z,2.80
2022-08-07T10:56:30.107Z,2.33
2022-08-07T10:59:30.402Z,2.72
2022-08-07T11:02:32.764Z,2.78
2022-08-07T11:05:50.433Z,2.63
2022-08-07T11:08:36.645Z,3.25
2022-08-07T11:11:20.273Z,2.60
2022-08-07T11:14:44.639Z,2.67
2022-08-07T11:17:23.474Z,2.25
2022-08-07T11:20:24.506Z,2.65
2022-08-07T11:23:09.256Z,2.30
2022-08-07T11:25:49.814Z,2.40
2022-08-07T11:28:24.859Z,2.65
2022-08-07T11:30:51.430Z,2.30
2022-08-07T11:33:54.354Z,2.80
2022-08-07T11:36:40.796Z,2.50
2022-08-07T11:39:07.462Z,2.42
2022-08-07T11:42:01.330Z,2.80
2022-08-07T11:44:52.736Z,2.45
2022-08-07T11:48:05.976Z,2.60
2022-08-07T11:51:41.717Z,2.17
2022-08-07T11:54:10.250Z,2.55
2022-08-07T11:56:53.228Z,2.20
2022-08-07T12:00:11.876Z,2.45
2022-08-07T12:03:00.170Z,2.47
2022-08-07T12:05:58.352Z,2.55
2022-08-07T12:08:37.892Z,2.65
2022-08-07T12:11:20.718Z,2.72
2022-08-07T12:14:13.131Z,2.17
2022-08-07T12:16:53.743Z,2.60
2022-08-07T12:20:02.794Z,2.33
2022-08-07T12:23:09.103Z,2.38
2022-08-07T12:26:06.271Z,2.50
2022-08-07T12:28:54.959Z,2.30
2022-08-07T12:31:53.340Z,2.30
2022-08-07T12:34:26.018Z,2.95
2022-08-07T12:36:56.405Z,2.33
2022-08-07T12:39:42.698Z,2.50
2022-08-07T12:42:13.352Z,2.70
2022-08-07T12:44:45.245Z,2.25
2022-08-07T12:47:37.543Z,2.10
2022-08-07T12:50:39.235Z,2.55
2022-08-07T12:53:19.251Z,2.72
2022-08-07T12:56:17.184Z,2.28
2022-08-07T12:58:46.861Z,2.70
2022-08-07T13:01:32.132Z,2.33
2022-08-07T13:04:33.998Z,2.05
2022-08-07T13:08:12.051Z,2.00
2022-08-07T13:10:29.301Z,2.38
2022-08-07T13:13:02.264Z,2.40
2022-08-07T13:15:43.023Z,2.20
2022-08-07T13:18:44.510Z,2.10
2022-08-07T13:21:50.331Z,2.20
2022-08-07T13:24:54.109Z,2.20
2022-08-07T13:28:05.855Z,2.38
2022-08-07T13:30:19.004Z,2.47
2022-08-07T13:32:55.342Z,2.50
2022-08-07T13:35:59.523Z,2.22
2022-08-07T13:38:41.904Z,2.30
2022-08-07T13:41:16.535Z,2.38
2022-08-07T13:43:52.686Z,2.50
2022-08-07T13:46:32.825Z,2.78
2022-08-07T13:49:04.127Z,2.15
2022-08-07T13:52:23.016Z,2.40
2022-08-07T13:54:30.476Z,2.50
2022-08-07T13:57:02.661Z,2.30
2022-08-07T13:59:34.592Z,2.40
2022-08-07T14:02:10.490Z,2.25
2022-08-07T14:04:50.076Z,2.17
2022-08-07T14:07:33.598Z,2.38
2022-08-07T14:10:20.419Z,2.35
2022-08-07T14:13:02.930Z,2.47
2022-08-07T14:15:39.489Z,2.28
2022-08-07T14:18:30.741Z,2.28
2022-08-07T14:22:00.743Z,2.10
2022-08-07T14:24:06.722Z,2.10
2022-08-07T14:26:39.276Z,2.30
2022-08-07T14:30:08.043Z,2.50
2022-08-07T14:32:01.588Z,2.28
2022-08-07T14:34:30.881Z,2.45
2022-08-07T14:37:03.163Z,2.55
2022-08-07T14:40:16.418Z,2.30
2022-08-07T14:42:32.621Z,2.25
2022-08-07T14:45:21.432Z,2.20
2022-08-07T14:47:53.044Z,2.38
2022-08-07T14:50:28.027Z,2.20
2022-08-07T14:52:56.646Z,2.25
2022-08-07T14:55:35.528Z,2.40
2022-08-07T14:58:27.241Z,2.25
2022-08-07T15:00:55.397Z,2.20
2022-08-07T15:03:52.339Z,2.05
2022-08-07T15:06:15.303Z,2.15
2022-08-07T15:08:50.418Z,2.20
2022-08-07T15:11:54.112Z,2.28
2022-08-07T15:20:31.561Z,1.90
2022-08-07T15:25:55.498Z,2.08
2022-08-07T15:32:00.685Z,2.10
2022-08-07T15:34:02.819Z,1.98
2022-08-07T15:42:46.003Z,1.90
2022-08-07T15:44:53.336Z,1.90
2022-08-07T15:48:00.380Z,1.92
2022-08-07T15:51:01.247Z,1.70
2022-08-07T15:53:15.223Z,1.77
2022-08-07T15:56:02.524Z,2.03
2022-08-07T15:58:38.536Z,1.83
2022-08-07T16:01:12.515Z,2.13
2022-08-07T16:03:46.401Z,2.00
2022-08-07T16:06:14.697Z,1.95
2022-08-07T16:08:45.628Z,2.00
2022-08-07T16:11:41.500Z,1.80
2022-08-07T16:14:34.344Z,2.00
2022-08-07T16:18:00.813Z,1.85
2022-08-07T16:21:44.044Z,2.05
2022-08-07T16:23:58.850Z,1.80
2022-08-07T16:26:30.945Z,1.70
2022-08-07T16:30:11.167Z,2.00
2022-08-07T16:32:32.946Z,2.03
2022-08-07T16:35:57.024Z,1.95
2022-08-07T16:38:19.284Z,2.10
2022-08-07T16:41:18.276Z,2.00
2022-08-07T16:44:40.554Z,1.88
2022-08-07T16:47:25.191Z,1.90
2022-08-07T16:50:35.740Z,1.65
2022-08-07T16:54:02.608Z,1.88
2022-08-07T16:56:49.804Z,1.60
2022-08-07T16:59:46.681Z,1.75
2022-08-07T17:02:53.633Z,1.80
2022-08-07T17:06:02.264Z,1.90
2022-08-07T17:09:04.394Z,1.67
2022-08-07T17:12:04.936Z,2.20
2022-08-07T17:15:05.984Z,1.73
2022-08-07T17:17:44.255Z,1.80
2022-08-07T17:20:22.205Z,2.10
2022-08-07T17:23:02.611Z,2.00
2022-08-07T17:25:52.276Z,1.83
2022-08-07T17:28:57.652Z,2.10
2022-08-07T17:31:44.276Z,2.28
2022-08-07T17:35:08.858Z,2.00
2022-08-07T17:38:06.897Z,2.00
2022-08-07T17:40:43.329Z,2.05
2022-08-07T17:43:39.663Z,2.05
2022-08-07T17:46:37.999Z,2.00
2022-08-07T17:49:44.601Z,1.92
2022-08-07T17:52:41.139Z,2.05
2022-08-07T17:55:12.655Z,2.35
2022-08-07T17:58:08.159Z,1.98
2022-08-07T18:00:48.803Z,2.38
2022-08-07T18:03:21.508Z,2.20
2022-08-07T18:06:02.691Z,2.10
2022-08-07T18:09:01.295Z,2.10
2022-08-07T18:12:17.898Z,2.10
2022-08-07T18:14:50.898Z,2.10
2022-08-07T18:18:47.642Z,2.30
2022-08-07T18:21:08.290Z,2.00
2022-08-07T18:23:43.321Z,2.35
2022-08-07T18:26:16.302Z,2.00
2022-08-07T18:28:58.545Z,2.42
2022-08-07T18:31:40.599Z,2.30
2022-08-07T18:35:01.536Z,2.40
2022-08-07T18:38:59.265Z,2.30
2022-08-07T18:41:09.408Z,2.20
2022-08-07T18:43:57.652Z,2.33
2022-08-07T18:46:37.338Z,2.00
2022-08-07T18:50:32.315Z,2.30
2022-08-07T18:52:53.690Z,2.17
2022-08-07T18:55:42.931Z,2.15
2022-08-07T18:58:51.772Z,2.35
2022-08-07T19:02:32.905Z,2.50
2022-08-07T19:04:57.874Z,2.45
2022-08-07T19:07:59.356Z,2.78
2022-08-07T19:10:51.221Z,2.10
2022-08-07T19:13:34.015Z,2.40
2022-08-07T19:16:43.640Z,2.40
2022-08-07T19:19:16.181Z,2.40
2022-08-07T19:22:04.607Z,2.38
2022-08-07T19:24:48.805Z,2.58
2022-08-07T19:28:30.086Z,2.40
2022-08-07T19:31:01.926Z,2.35
2022-08-07T19:33:08.312Z,2.20
2022-08-07T19:35:42.044Z,2.50
2022-08-07T19:38:16.742Z,2.40
2022-08-07T19:40:49.945Z,2.65
2022-08-07T19:43:43.623Z,2.30
2022-08-07T19:46:22.351Z,2.75
2022-08-07T19:49:04.512Z,2.80
2022-08-07T19:51:52.760Z,3.22
2022-08-07T19:54:34.191Z,3.03
2022-08-07T19:58:00.143Z,2.90
2022-08-07T20:00:08.833Z,2.80
2022-08-07T20:02:52.142Z,2.50
2022-08-07T20:05:28.127Z,2.75
2022-08-07T20:08:04.727Z,2.60
2022-08-07T20:10:54.368Z,2.83
2022-08-07T20:13:42.162Z,3.00
2022-08-07T20:16:22.435Z,3.10
2022-08-07T20:18:59.303Z,2.85
2022-08-07T20:21:41.728Z,3.00
2022-08-07T20:24:28.832Z,3.03
2022-08-07T20:27:01.954Z,2.83
2022-08-07T20:29:49.402Z,3.08
2022-08-07T20:32:25.220Z,3.15
2022-08-07T20:34:56.044Z,2.90
2022-08-07T20:37:59.262Z,3.28
2022-08-07T20:40:37.434Z,3.10
2022-08-07T20:43:16.953Z,2.60
2022-08-07T20:46:27.105Z,3.08
2022-08-07T20:49:53.995Z,3.28
2022-08-07T20:51:30.838Z,3.00
2022-08-07T20:54:15.158Z,2.97
2022-08-07T20:56:46.227Z,3.20
2022-08-07T21:00:05.541Z,3.08
2022-08-07T21:02:31.659Z,2.85
2022-08-07T21:07:28.179Z,3.17
2022-08-07T21:10:00.392Z,3.38
2022-08-07T21:12:31.757Z,3.10
2022-08-07T21:15:02.455Z,3.13
2022-08-07T21:18:01.929Z,3.20
2022-08-07T21:20:29.885Z,3.40
2022-08-07T21:23:08.389Z,3.30
2022-08-07T21:26:03.112Z,3.17
2022-08-07T21:28:48.281Z,3.22
2022-08-07T21:32:10.956Z,3.50
2022-08-07T21:34:33.330Z,3.30
2022-08-07T21:37:07.763Z,3.40
2022-08-07T21:39:44.739Z,4.93
2022-08-07T21:42:42.246Z,3.58
2022-08-07T21:46:08.117Z,3.50
2022-08-07T21:48:28.261Z,3.40
2022-08-07T21:51:02.008Z,3.03
2022-08-07T21:53:46.478Z,3.47
2022-08-07T21:56:39.595Z,3.50
2022-08-07T21:59:29.660Z,3.10
2022-08-07T22:02:11.315Z,3.40
2022-08-07T22:04:53.470Z,3.45
2022-08-07T22:07:31.870Z,3.65
2022-08-07T22:10:14.398Z,3.13
2022-08-07T22:12:59.383Z,3.28
2022-08-07T22:16:38.653Z,3.78
2022-08-07T22:18:24.151Z,3.20
2022-08-07T22:21:14.436Z,3.55
2022-08-07T22:23:47.900Z,3.30
2022-08-07T22:29:15.058Z,3.50
2022-08-07T22:32:05.561Z,3.53
2022-08-07T22:34:41.045Z,3.80
2022-08-07T22:38:03.311Z,3.50
2022-08-07T22:40:49.736Z,3.70
2022-08-07T22:43:23.445Z,3.70
2022-08-07T22:47:02.265Z,2.95
2022-08-07T22:49:33.993Z,3.60
2022-08-07T22:52:36.848Z,3.85
2022-08-07T22:55:30.809Z,3.67
2022-08-07T22:58:02.809Z,3.53
2022-08-07T23:00:40.749Z,3.65
2022-08-07T23:03:58.062Z,4.18
2022-08-07T23:10:04.644Z,4.60
2022-08-07T23:12:36.907Z,4.18
2022-08-07T23:15:03.544Z,3.80
2022-08-07T23:18:02.224Z,3.80
2022-08-07T23:20:51.258Z,4.13
2022-08-07T23:24:06.554Z,3.47
2022-08-07T23:26:19.188Z,4.05
2022-08-07T23:30:36.227Z,3.72
2022-08-07T23:34:35.551Z,4.28
2022-08-07T23:35:54.323Z,4.03
2022-08-07T23:38:36.948Z,3.92
2022-08-07T23:42:02.079Z,3.50
2022-08-07T23:44:54.523Z,3.90
2022-08-07T23:47:42.245Z,3.80
2022-08-07T23:50:22.732Z,4.70
2022-08-07T23:53:08.674Z,4.00
2022-08-07T23:55:54.262Z,4.10
2022-08-07T23:58:38.439Z,4.53
